sensor_id;sensor_type;location;lat;lon;timestamp;P1;durP1;ratioP1;P2;durP2;ratioP2
77870;SDS011;67067;46.850;7.578;2023-07-13T00:00:14;8.38;;;4.03;;
77870;SDS011;67067;46.850;7.578;2023-07-13T00:01:21;8.27;;;4.22;;
77870;SDS011;67067;46.850;7.578;2023-07-13T00:02:23;5.57;;;3.80;;
77870;SDS011;67067;46.850;7.578;2023-07-13T00:03:26;6.88;;;3.90;;
77870;SDS011;67067;46.850;7.578;2023-07-13T00:04:32;5.68;;;3.70;;
77870;SDS011;67067;46.850;7.578;2023-07-13T00:05:34;10.38;;;3.90;;
77870;SDS011;67067;46.850;7.578;2023-07-13T00:07:38;7.93;;;3.65;;
77870;SDS011;67067;46.850;7.578;2023-07-13T00:09:41;9.53;;;3.73;;
77870;SDS011;67067;46.850;7.578;2023-07-13T00:10:43;8.82;;;3.50;;
77870;SDS011;67067;46.850;7.578;2023-07-13T00:11:50;13.70;;;3.92;;
77870;SDS011;67067;46.850;7.578;2023-07-13T00:12:54;5.90;;;3.30;;
77870;SDS011;67067;46.850;7.578;2023-07-13T00:13:56;3.72;;;3.35;;
77870;SDS011;67067;46.850;7.578;2023-07-13T00:16:01;6.97;;;3.22;;
77870;SDS011;67067;46.850;7.578;2023-07-13T00:19:09;6.30;;;3.70;;
77870;SDS011;67067;46.850;7.578;2023-07-13T00:20:12;8.45;;;3.70;;
77870;SDS011;67067;46.850;7.578;2023-07-13T00:21:14;5.43;;;3.65;;
77870;SDS011;67067;46.850;7.578;2023-07-13T00:23:19;7.10;;;3.78;;
77870;SDS011;67067;46.850;7.578;2023-07-13T00:24:23;5.50;;;3.60;;
77870;SDS011;67067;46.850;7.578;2023-07-13T00:25:25;5.18;;;3.28;;
77870;SDS011;67067;46.850;7.578;2023-07-13T00:26:29;5.90;;;3.28;;
77870;SDS011;67067;46.850;7.578;2023-07-13T00:27:33;8.52;;;3.22;;
77870;SDS011;67067;46.850;7.578;2023-07-13T00:28:38;5.28;;;3.42;;
77870;SDS011;67067;46.850;7.578;2023-07-13T00:29:41;9.90;;;3.67;;
77870;SDS011;67067;46.850;7.578;2023-07-13T00:31:46;6.45;;;3.20;;
77870;SDS011;67067;46.850;7.578;2023-07-13T00:32:50;8.93;;;3.60;;
77870;SDS011;67067;46.850;7.578;2023-07-13T00:34:05;9.18;;;3.40;;
77870;SDS011;67067;46.850;7.578;2023-07-13T00:35:09;7.68;;;3.45;;
77870;SDS011;67067;46.850;7.578;2023-07-13T00:36:16;6.47;;;3.20;;
77870;SDS011;67067;46.850;7.578;2023-07-13T00:37:18;6.45;;;3.40;;
77870;SDS011;67067;46.850;7.578;2023-07-13T00:38:25;9.18;;;3.35;;
77870;SDS011;67067;46.850;7.578;2023-07-13T00:40:28;7.75;;;3.50;;
77870;SDS011;67067;46.850;7.578;2023-07-13T00:42:34;3.97;;;3.50;;
77870;SDS011;67067;46.850;7.578;2023-07-13T00:43:36;9.77;;;3.67;;
77870;SDS011;67067;46.850;7.578;2023-07-13T00:44:38;5.05;;;3.50;;
77870;SDS011;67067;46.850;7.578;2023-07-13T00:47:45;9.15;;;3.90;;
77870;SDS011;67067;46.850;7.578;2023-07-13T00:49:52;8.27;;;3.80;;
77870;SDS011;67067;46.850;7.578;2023-07-13T00:53:01;12.68;;;4.13;;
77870;SDS011;67067;46.850;7.578;2023-07-13T00:54:06;13.27;;;4.50;;
77870;SDS011;67067;46.850;7.578;2023-07-13T00:55:12;9.35;;;3.75;;
77870;SDS011;67067;46.850;7.578;2023-07-13T00:56:17;8.35;;;3.85;;
77870;SDS011;67067;46.850;7.578;2023-07-13T00:57:19;4.90;;;3.22;;
77870;SDS011;67067;46.850;7.578;2023-07-13T00:58:25;7.57;;;3.72;;
77870;SDS011;67067;46.850;7.578;2023-07-13T00:59:27;8.35;;;4.00;;
77870;SDS011;67067;46.850;7.578;2023-07-13T01:00:29;11.48;;;3.78;;
77870;SDS011;67067;46.850;7.578;2023-07-13T01:01:34;5.97;;;3.50;;
77870;SDS011;67067;46.850;7.578;2023-07-13T01:02:41;6.15;;;3.80;;
77870;SDS011;67067;46.850;7.578;2023-07-13T01:03:45;9.57;;;3.80;;
77870;SDS011;67067;46.850;7.578;2023-07-13T01:04:48;11.15;;;3.35;;
77870;SDS011;67067;46.850;7.578;2023-07-13T01:05:50;12.43;;;3.88;;
77870;SDS011;67067;46.850;7.578;2023-07-13T01:06:55;9.27;;;3.60;;
77870;SDS011;67067;46.850;7.578;2023-07-13T01:07:58;7.38;;;3.40;;
77870;SDS011;67067;46.850;7.578;2023-07-13T01:09:01;3.92;;;3.53;;
77870;SDS011;67067;46.850;7.578;2023-07-13T01:10:03;4.82;;;3.53;;
77870;SDS011;67067;46.850;7.578;2023-07-13T01:11:06;8.00;;;3.92;;
77870;SDS011;67067;46.850;7.578;2023-07-13T01:12:09;11.02;;;3.97;;
77870;SDS011;67067;46.850;7.578;2023-07-13T01:13:11;6.53;;;3.72;;
77870;SDS011;67067;46.850;7.578;2023-07-13T01:14:13;8.05;;;3.97;;
77870;SDS011;67067;46.850;7.578;2023-07-13T01:15:36;11.07;;;4.25;;
77870;SDS011;67067;46.850;7.578;2023-07-13T01:16:48;11.18;;;3.78;;
77870;SDS011;67067;46.850;7.578;2023-07-13T01:17:51;11.35;;;3.70;;
77870;SDS011;67067;46.850;7.578;2023-07-13T01:18:54;7.68;;;4.03;;
77870;SDS011;67067;46.850;7.578;2023-07-13T01:19:59;6.40;;;3.60;;
77870;SDS011;67067;46.850;7.578;2023-07-13T01:21:02;7.90;;;4.00;;
77870;SDS011;67067;46.850;7.578;2023-07-13T01:22:07;5.40;;;3.50;;
77870;SDS011;67067;46.850;7.578;2023-07-13T01:23:15;11.57;;;4.30;;
77870;SDS011;67067;46.850;7.578;2023-07-13T01:25:22;10.77;;;3.83;;
77870;SDS011;67067;46.850;7.578;2023-07-13T01:27:25;7.57;;;3.90;;
77870;SDS011;67067;46.850;7.578;2023-07-13T01:28:28;9.77;;;4.35;;
77870;SDS011;67067;46.850;7.578;2023-07-13T01:29:31;6.75;;;4.13;;
77870;SDS011;67067;46.850;7.578;2023-07-13T01:30:34;8.27;;;4.03;;
77870;SDS011;67067;46.850;7.578;2023-07-13T01:31:36;5.07;;;3.83;;
77870;SDS011;67067;46.850;7.578;2023-07-13T01:32:41;6.03;;;3.80;;
77870;SDS011;67067;46.850;7.578;2023-07-13T01:33:43;9.85;;;4.00;;
77870;SDS011;67067;46.850;7.578;2023-07-13T01:34:48;9.73;;;4.28;;
77870;SDS011;67067;46.850;7.578;2023-07-13T01:35:51;5.63;;;3.88;;
77870;SDS011;67067;46.850;7.578;2023-07-13T01:36:55;6.45;;;3.80;;
77870;SDS011;67067;46.850;7.578;2023-07-13T01:37:57;6.95;;;3.47;;
77870;SDS011;67067;46.850;7.578;2023-07-13T01:40:00;7.13;;;3.15;;
77870;SDS011;67067;46.850;7.578;2023-07-13T01:41:04;7.28;;;3.50;;
77870;SDS011;67067;46.850;7.578;2023-07-13T01:42:06;8.80;;;3.63;;
77870;SDS011;67067;46.850;7.578;2023-07-13T01:43:08;7.82;;;3.80;;
77870;SDS011;67067;46.850;7.578;2023-07-13T01:44:10;4.63;;;3.50;;
77870;SDS011;67067;46.850;7.578;2023-07-13T01:45:12;7.88;;;3.80;;
77870;SDS011;67067;46.850;7.578;2023-07-13T01:47:18;8.43;;;3.50;;
77870;SDS011;67067;46.850;7.578;2023-07-13T01:49:22;6.10;;;3.40;;
77870;SDS011;67067;46.850;7.578;2023-07-13T01:50:24;8.77;;;4.18;;
77870;SDS011;67067;46.850;7.578;2023-07-13T01:51:27;6.45;;;4.05;;
77870;SDS011;67067;46.850;7.578;2023-07-13T01:52:29;10.15;;;3.90;;
77870;SDS011;67067;46.850;7.578;2023-07-13T01:53:32;11.13;;;4.22;;
77870;SDS011;67067;46.850;7.578;2023-07-13T01:54:35;9.48;;;4.13;;
77870;SDS011;67067;46.850;7.578;2023-07-13T01:56:39;6.53;;;3.90;;
77870;SDS011;67067;46.850;7.578;2023-07-13T01:57:42;4.82;;;3.72;;
77870;SDS011;67067;46.850;7.578;2023-07-13T01:58:44;4.63;;;3.30;;
77870;SDS011;67067;46.850;7.578;2023-07-13T01:59:46;10.38;;;4.15;;
77870;SDS011;67067;46.850;7.578;2023-07-13T02:01:51;6.00;;;4.30;;
77870;SDS011;67067;46.850;7.578;2023-07-13T02:02:55;6.97;;;3.70;;
77870;SDS011;67067;46.850;7.578;2023-07-13T02:03:58;5.43;;;3.25;;
77870;SDS011;67067;46.850;7.578;2023-07-13T02:05:01;4.85;;;3.25;;
77870;SDS011;67067;46.850;7.578;2023-07-13T02:06:05;7.93;;;3.40;;
77870;SDS011;67067;46.850;7.578;2023-07-13T02:07:08;5.65;;;3.50;;
77870;SDS011;67067;46.850;7.578;2023-07-13T02:08:10;8.07;;;3.78;;
77870;SDS011;67067;46.850;7.578;2023-07-13T02:09:12;5.18;;;3.40;;
77870;SDS011;67067;46.850;7.578;2023-07-13T02:10:14;5.05;;;3.45;;
77870;SDS011;67067;46.850;7.578;2023-07-13T02:11:16;7.80;;;3.85;;
77870;SDS011;67067;46.850;7.578;2023-07-13T02:12:18;7.25;;;3.80;;
77870;SDS011;67067;46.850;7.578;2023-07-13T02:13:22;7.05;;;3.67;;
77870;SDS011;67067;46.850;7.578;2023-07-13T02:14:24;9.07;;;4.10;;
77870;SDS011;67067;46.850;7.578;2023-07-13T02:16:28;8.00;;;3.70;;
77870;SDS011;67067;46.850;7.578;2023-07-13T02:17:30;6.95;;;3.15;;
77870;SDS011;67067;46.850;7.578;2023-07-13T02:18:33;5.30;;;3.58;;
77870;SDS011;67067;46.850;7.578;2023-07-13T02:19:35;3.88;;;3.45;;
77870;SDS011;67067;46.850;7.578;2023-07-13T02:20:37;5.45;;;3.05;;
77870;SDS011;67067;46.850;7.578;2023-07-13T02:21:41;5.03;;;3.45;;
77870;SDS011;67067;46.850;7.578;2023-07-13T02:23:44;5.55;;;3.63;;
77870;SDS011;67067;46.850;7.578;2023-07-13T02:24:50;5.38;;;2.95;;
77870;SDS011;67067;46.850;7.578;2023-07-13T02:25:55;5.43;;;3.53;;
77870;SDS011;67067;46.850;7.578;2023-07-13T02:26:57;6.57;;;3.90;;
77870;SDS011;67067;46.850;7.578;2023-07-13T02:29:02;5.20;;;3.50;;
77870;SDS011;67067;46.850;7.578;2023-07-13T02:30:04;4.65;;;3.28;;
77870;SDS011;67067;46.850;7.578;2023-07-13T02:31:07;6.30;;;3.08;;
77870;SDS011;67067;46.850;7.578;2023-07-13T02:32:10;4.43;;;3.25;;
77870;SDS011;67067;46.850;7.578;2023-07-13T02:33:15;4.47;;;3.40;;
77870;SDS011;67067;46.850;7.578;2023-07-13T02:34:17;5.63;;;3.65;;
77870;SDS011;67067;46.850;7.578;2023-07-13T02:35:20;6.25;;;3.72;;
77870;SDS011;67067;46.850;7.578;2023-07-13T02:37:26;8.57;;;3.85;;
77870;SDS011;67067;46.850;7.578;2023-07-13T02:38:29;7.70;;;3.90;;
77870;SDS011;67067;46.850;7.578;2023-07-13T02:40:36;5.75;;;3.40;;
77870;SDS011;67067;46.850;7.578;2023-07-13T02:41:39;7.20;;;3.70;;
77870;SDS011;67067;46.850;7.578;2023-07-13T02:42:41;5.35;;;3.50;;
77870;SDS011;67067;46.850;7.578;2023-07-13T02:43:48;4.40;;;3.45;;
77870;SDS011;67067;46.850;7.578;2023-07-13T02:44:50;4.78;;;3.50;;
77870;SDS011;67067;46.850;7.578;2023-07-13T02:45:52;5.90;;;3.95;;
77870;SDS011;67067;46.850;7.578;2023-07-13T02:47:58;3.75;;;2.55;;
77870;SDS011;67067;46.850;7.578;2023-07-13T02:49:00;7.18;;;2.88;;
77870;SDS011;67067;46.850;7.578;2023-07-13T02:50:02;3.75;;;2.30;;
77870;SDS011;67067;46.850;7.578;2023-07-13T02:51:06;5.55;;;2.50;;
77870;SDS011;67067;46.850;7.578;2023-07-13T02:52:08;3.42;;;2.30;;
77870;SDS011;67067;46.850;7.578;2023-07-13T02:53:10;5.80;;;3.00;;
77870;SDS011;67067;46.850;7.578;2023-07-13T02:54:12;4.80;;;3.20;;
77870;SDS011;67067;46.850;7.578;2023-07-13T02:55:15;8.35;;;3.58;;
77870;SDS011;67067;46.850;7.578;2023-07-13T02:56:18;8.80;;;3.60;;
77870;SDS011;67067;46.850;7.578;2023-07-13T02:57:23;5.65;;;3.42;;
77870;SDS011;67067;46.850;7.578;2023-07-13T02:58:25;4.88;;;2.80;;
77870;SDS011;67067;46.850;7.578;2023-07-13T03:00:28;3.47;;;2.50;;
77870;SDS011;67067;46.850;7.578;2023-07-13T03:01:30;5.97;;;2.20;;
77870;SDS011;67067;46.850;7.578;2023-07-13T03:02:35;2.50;;;2.15;;
77870;SDS011;67067;46.850;7.578;2023-07-13T03:03:38;4.10;;;2.08;;
77870;SDS011;67067;46.850;7.578;2023-07-13T03:04:40;2.65;;;1.65;;
77870;SDS011;67067;46.850;7.578;2023-07-13T03:05:42;2.13;;;1.92;;
77870;SDS011;67067;46.850;7.578;2023-07-13T03:06:47;2.00;;;1.83;;
77870;SDS011;67067;46.850;7.578;2023-07-13T03:07:49;2.83;;;2.03;;
77870;SDS011;67067;46.850;7.578;2023-07-13T03:08:51;4.30;;;2.00;;
77870;SDS011;67067;46.850;7.578;2023-07-13T03:09:57;8.48;;;2.05;;
77870;SDS011;67067;46.850;7.578;2023-07-13T03:11:08;1.88;;;1.40;;
77870;SDS011;67067;46.850;7.578;2023-07-13T03:12:14;4.32;;;2.40;;
77870;SDS011;67067;46.850;7.578;2023-07-13T03:14:18;4.40;;;2.78;;
77870;SDS011;67067;46.850;7.578;2023-07-13T03:15:21;3.13;;;2.00;;
77870;SDS011;67067;46.850;7.578;2023-07-13T03:16:27;5.10;;;2.60;;
77870;SDS011;67067;46.850;7.578;2023-07-13T03:17:29;5.05;;;2.25;;
77870;SDS011;67067;46.850;7.578;2023-07-13T03:18:31;4.30;;;2.00;;
77870;SDS011;67067;46.850;7.578;2023-07-13T03:19:37;8.18;;;2.55;;
77870;SDS011;67067;46.850;7.578;2023-07-13T03:20:39;4.18;;;2.28;;
77870;SDS011;67067;46.850;7.578;2023-07-13T03:21:41;3.17;;;2.47;;
77870;SDS011;67067;46.850;7.578;2023-07-13T03:22:43;3.38;;;2.47;;
77870;SDS011;67067;46.850;7.578;2023-07-13T03:23:45;4.07;;;2.38;;
77870;SDS011;67067;46.850;7.578;2023-07-13T03:24:48;4.75;;;2.33;;
77870;SDS011;67067;46.850;7.578;2023-07-13T03:26:52;3.95;;;2.53;;
77870;SDS011;67067;46.850;7.578;2023-07-13T03:27:55;3.83;;;2.55;;
77870;SDS011;67067;46.850;7.578;2023-07-13T03:28:59;6.47;;;2.75;;
77870;SDS011;67067;46.850;7.578;2023-07-13T03:30:01;9.82;;;3.05;;
77870;SDS011;67067;46.850;7.578;2023-07-13T03:31:03;3.30;;;2.67;;
77870;SDS011;67067;46.850;7.578;2023-07-13T03:32:07;2.60;;;2.40;;
77870;SDS011;67067;46.850;7.578;2023-07-13T03:33:09;2.95;;;2.65;;
77870;SDS011;67067;46.850;7.578;2023-07-13T03:34:11;3.03;;;2.72;;
77870;SDS011;67067;46.850;7.578;2023-07-13T03:35:14;3.70;;;2.70;;
77870;SDS011;67067;46.850;7.578;2023-07-13T03:36:20;2.95;;;2.15;;
77870;SDS011;67067;46.850;7.578;2023-07-13T03:37:28;2.58;;;1.88;;
77870;SDS011;67067;46.850;7.578;2023-07-13T03:38:31;2.10;;;1.92;;
77870;SDS011;67067;46.850;7.578;2023-07-13T03:39:33;2.15;;;2.00;;
77870;SDS011;67067;46.850;7.578;2023-07-13T03:40:37;3.08;;;2.17;;
77870;SDS011;67067;46.850;7.578;2023-07-13T03:41:39;2.35;;;1.90;;
77870;SDS011;67067;46.850;7.578;2023-07-13T03:42:41;4.00;;;2.38;;
77870;SDS011;67067;46.850;7.578;2023-07-13T03:43:47;3.83;;;2.95;;
77870;SDS011;67067;46.850;7.578;2023-07-13T03:44:52;2.30;;;2.10;;
77870;SDS011;67067;46.850;7.578;2023-07-13T03:45:54;2.85;;;2.20;;
77870;SDS011;67067;46.850;7.578;2023-07-13T03:46:56;2.72;;;2.35;;
77870;SDS011;67067;46.850;7.578;2023-07-13T03:47:58;3.38;;;1.92;;
77870;SDS011;67067;46.850;7.578;2023-07-13T03:49:01;3.17;;;2.25;;
77870;SDS011;67067;46.850;7.578;2023-07-13T03:50:06;4.90;;;2.20;;
77870;SDS011;67067;46.850;7.578;2023-07-13T03:51:09;7.13;;;2.70;;
77870;SDS011;67067;46.850;7.578;2023-07-13T03:52:11;3.08;;;2.63;;
77870;SDS011;67067;46.850;7.578;2023-07-13T03:54:14;2.70;;;2.50;;
77870;SDS011;67067;46.850;7.578;2023-07-13T03:55:16;5.18;;;2.35;;
77870;SDS011;67067;46.850;7.578;2023-07-13T03:56:19;7.63;;;2.80;;
77870;SDS011;67067;46.850;7.578;2023-07-13T03:57:21;6.78;;;3.10;;
77870;SDS011;67067;46.850;7.578;2023-07-13T03:59:37;4.93;;;2.47;;
77870;SDS011;67067;46.850;7.578;2023-07-13T04:00:42;2.65;;;2.28;;
77870;SDS011;67067;46.850;7.578;2023-07-13T04:02:48;3.22;;;2.63;;
77870;SDS011;67067;46.850;7.578;2023-07-13T04:03:51;3.13;;;2.40;;
77870;SDS011;67067;46.850;7.578;2023-07-13T04:04:56;2.60;;;2.40;;
77870;SDS011;67067;46.850;7.578;2023-07-13T04:05:59;3.63;;;2.60;;
77870;SDS011;67067;46.850;7.578;2023-07-13T04:07:02;2.85;;;1.92;;
77870;SDS011;67067;46.850;7.578;2023-07-13T04:08:04;3.33;;;2.35;;
77870;SDS011;67067;46.850;7.578;2023-07-13T04:09:07;2.88;;;2.30;;
77870;SDS011;67067;46.850;7.578;2023-07-13T04:10:10;2.35;;;2.15;;
77870;SDS011;67067;46.850;7.578;2023-07-13T04:11:12;4.38;;;2.83;;
77870;SDS011;67067;46.850;7.578;2023-07-13T04:12:17;5.10;;;2.85;;
77870;SDS011;67067;46.850;7.578;2023-07-13T04:14:20;3.40;;;2.83;;
77870;SDS011;67067;46.850;7.578;2023-07-13T04:16:23;2.63;;;2.42;;
77870;SDS011;67067;46.850;7.578;2023-07-13T04:17:25;4.78;;;2.72;;
77870;SDS011;67067;46.850;7.578;2023-07-13T04:19:29;3.73;;;2.50;;
77870;SDS011;67067;46.850;7.578;2023-07-13T04:20:31;3.78;;;2.17;;
77870;SDS011;67067;46.850;7.578;2023-07-13T04:21:33;2.33;;;1.98;;
77870;SDS011;67067;46.850;7.578;2023-07-13T04:23:37;2.30;;;2.10;;
77870;SDS011;67067;46.850;7.578;2023-07-13T04:24:39;2.72;;;2.47;;
77870;SDS011;67067;46.850;7.578;2023-07-13T04:25:45;3.17;;;2.58;;
77870;SDS011;67067;46.850;7.578;2023-07-13T04:26:53;6.60;;;2.63;;
77870;SDS011;67067;46.850;7.578;2023-07-13T04:27:55;2.35;;;2.10;;
77870;SDS011;67067;46.850;7.578;2023-07-13T04:29:00;4.57;;;2.70;;
77870;SDS011;67067;46.850;7.578;2023-07-13T04:30:02;4.32;;;2.90;;
77870;SDS011;67067;46.850;7.578;2023-07-13T04:31:04;7.68;;;3.08;;
77870;SDS011;67067;46.850;7.578;2023-07-13T04:32:08;8.93;;;3.22;;
77870;SDS011;67067;46.850;7.578;2023-07-13T04:33:10;4.43;;;2.95;;
77870;SDS011;67067;46.850;7.578;2023-07-13T04:34:14;2.80;;;2.53;;
77870;SDS011;67067;46.850;7.578;2023-07-13T04:36:18;5.93;;;2.78;;
77870;SDS011;67067;46.850;7.578;2023-07-13T04:38:23;4.17;;;2.60;;
77870;SDS011;67067;46.850;7.578;2023-07-13T04:39:26;4.93;;;2.80;;
77870;SDS011;67067;46.850;7.578;2023-07-13T04:41:31;2.78;;;2.53;;
77870;SDS011;67067;46.850;7.578;2023-07-13T04:42:33;2.65;;;2.45;;
77870;SDS011;67067;46.850;7.578;2023-07-13T04:43:36;3.50;;;2.22;;
77870;SDS011;67067;46.850;7.578;2023-07-13T04:44:37;2.17;;;1.80;;
77870;SDS011;67067;46.850;7.578;2023-07-13T04:46:42;1.92;;;1.83;;
77870;SDS011;67067;46.850;7.578;2023-07-13T04:47:44;2.85;;;2.45;;
77870;SDS011;67067;46.850;7.578;2023-07-13T04:48:46;4.10;;;2.50;;
77870;SDS011;67067;46.850;7.578;2023-07-13T04:49:50;4.18;;;2.25;;
77870;SDS011;67067;46.850;7.578;2023-07-13T04:50:55;2.20;;;1.95;;
77870;SDS011;67067;46.850;7.578;2023-07-13T04:51:58;2.20;;;2.00;;
77870;SDS011;67067;46.850;7.578;2023-07-13T04:53:00;3.83;;;1.90;;
77870;SDS011;67067;46.850;7.578;2023-07-13T04:54:07;1.60;;;1.50;;
77870;SDS011;67067;46.850;7.578;2023-07-13T04:56:11;5.35;;;2.00;;
77870;SDS011;67067;46.850;7.578;2023-07-13T04:57:16;2.45;;;1.98;;
77870;SDS011;67067;46.850;7.578;2023-07-13T04:59:22;2.40;;;2.20;;
77870;SDS011;67067;46.850;7.578;2023-07-13T05:00:24;4.50;;;2.78;;
77870;SDS011;67067;46.850;7.578;2023-07-13T05:01:26;3.03;;;2.47;;
77870;SDS011;67067;46.850;7.578;2023-07-13T05:02:28;4.10;;;2.47;;
77870;SDS011;67067;46.850;7.578;2023-07-13T05:03:35;3.63;;;2.70;;
77870;SDS011;67067;46.850;7.578;2023-07-13T05:04:36;3.20;;;1.95;;
77870;SDS011;67067;46.850;7.578;2023-07-13T05:06:40;4.70;;;1.93;;
77870;SDS011;67067;46.850;7.578;2023-07-13T05:07:42;2.03;;;1.85;;
77870;SDS011;67067;46.850;7.578;2023-07-13T05:09:45;1.70;;;1.60;;
77870;SDS011;67067;46.850;7.578;2023-07-13T05:10:47;1.83;;;1.63;;
77870;SDS011;67067;46.850;7.578;2023-07-13T05:12:50;1.83;;;1.60;;
77870;SDS011;67067;46.850;7.578;2023-07-13T05:13:52;3.00;;;1.85;;
77870;SDS011;67067;46.850;7.578;2023-07-13T05:14:54;2.20;;;2.05;;
77870;SDS011;67067;46.850;7.578;2023-07-13T05:15:59;3.47;;;2.10;;
77870;SDS011;67067;46.850;7.578;2023-07-13T05:17:07;4.50;;;2.50;;
77870;SDS011;67067;46.850;7.578;2023-07-13T05:19:11;5.03;;;2.10;;
77870;SDS011;67067;46.850;7.578;2023-07-13T05:20:13;2.55;;;2.15;;
77870;SDS011;67067;46.850;7.578;2023-07-13T05:21:15;1.77;;;1.60;;
77870;SDS011;67067;46.850;7.578;2023-07-13T05:23:18;4.07;;;2.03;;
77870;SDS011;67067;46.850;7.578;2023-07-13T05:24:25;2.78;;;2.40;;
77870;SDS011;67067;46.850;7.578;2023-07-13T05:25:27;3.17;;;2.08;;
77870;SDS011;67067;46.850;7.578;2023-07-13T05:27:31;4.07;;;2.30;;
77870;SDS011;67067;46.850;7.578;2023-07-13T05:28:33;1.83;;;1.73;;
77870;SDS011;67067;46.850;7.578;2023-07-13T05:29:37;3.30;;;2.10;;
77870;SDS011;67067;46.850;7.578;2023-07-13T05:30:39;8.38;;;2.38;;
77870;SDS011;67067;46.850;7.578;2023-07-13T05:32:44;3.22;;;2.15;;
77870;SDS011;67067;46.850;7.578;2023-07-13T05:33:49;3.28;;;1.95;;
77870;SDS011;67067;46.850;7.578;2023-07-13T05:34:55;2.55;;;2.15;;
77870;SDS011;67067;46.850;7.578;2023-07-13T05:35:56;1.63;;;1.52;;
77870;SDS011;67067;46.850;7.578;2023-07-13T05:38:02;2.97;;;2.05;;
77870;SDS011;67067;46.850;7.578;2023-07-13T05:39:04;1.85;;;1.63;;
77870;SDS011;67067;46.850;7.578;2023-07-13T05:40:09;4.05;;;1.90;;
77870;SDS011;67067;46.850;7.578;2023-07-13T05:41:11;3.35;;;1.55;;
77870;SDS011;67067;46.850;7.578;2023-07-13T05:42:12;2.72;;;1.63;;
77870;SDS011;67067;46.850;7.578;2023-07-13T05:43:19;1.98;;;1.65;;
77870;SDS011;67067;46.850;7.578;2023-07-13T05:44:21;2.63;;;2.17;;
77870;SDS011;67067;46.850;7.578;2023-07-13T05:45:23;2.10;;;1.90;;
77870;SDS011;67067;46.850;7.578;2023-07-13T05:46:27;2.85;;;1.83;;
77870;SDS011;67067;46.850;7.578;2023-07-13T05:47:29;4.38;;;1.70;;
77870;SDS011;67067;46.850;7.578;2023-07-13T05:48:31;2.53;;;2.30;;
77870;SDS011;67067;46.850;7.578;2023-07-13T05:49:33;3.65;;;2.28;;
77870;SDS011;67067;46.850;7.578;2023-07-13T05:51:36;3.30;;;2.35;;
77870;SDS011;67067;46.850;7.578;2023-07-13T05:52:38;2.40;;;2.20;;
77870;SDS011;67067;46.850;7.578;2023-07-13T05:54:41;2.40;;;2.20;;
77870;SDS011;67067;46.850;7.578;2023-07-13T05:56:54;4.18;;;2.35;;
77870;SDS011;67067;46.850;7.578;2023-07-13T05:58:59;2.53;;;2.30;;
77870;SDS011;67067;46.850;7.578;2023-07-13T06:00:03;4.15;;;2.00;;
77870;SDS011;67067;46.850;7.578;2023-07-13T06:01:12;2.90;;;2.53;;
77870;SDS011;67067;46.850;7.578;2023-07-13T06:02:15;1.90;;;1.80;;
77870;SDS011;67067;46.850;7.578;2023-07-13T06:04:21;1.95;;;1.85;;
77870;SDS011;67067;46.850;7.578;2023-07-13T06:05:23;4.15;;;2.42;;
77870;SDS011;67067;46.850;7.578;2023-07-13T06:06:24;2.40;;;2.15;;
77870;SDS011;67067;46.850;7.578;2023-07-13T06:07:29;2.33;;;2.08;;
77870;SDS011;67067;46.850;7.578;2023-07-13T06:08:31;2.95;;;2.33;;
77870;SDS011;67067;46.850;7.578;2023-07-13T06:09:34;2.15;;;2.05;;
77870;SDS011;67067;46.850;7.578;2023-07-13T06:10:35;2.17;;;2.00;;
77870;SDS011;67067;46.850;7.578;2023-07-13T06:11:38;2.80;;;2.08;;
77870;SDS011;67067;46.850;7.578;2023-07-13T06:13:41;2.05;;;1.85;;
77870;SDS011;67067;46.850;7.578;2023-07-13T06:14:45;1.63;;;1.52;;
77870;SDS011;67067;46.850;7.578;2023-07-13T06:15:49;2.55;;;1.98;;
77870;SDS011;67067;46.850;7.578;2023-07-13T06:16:54;1.95;;;1.85;;
77870;SDS011;67067;46.850;7.578;2023-07-13T06:17:58;2.55;;;2.35;;
77870;SDS011;67067;46.850;7.578;2023-07-13T06:19:00;2.60;;;2.40;;
77870;SDS011;67067;46.850;7.578;2023-07-13T06:20:05;2.60;;;2.03;;
77870;SDS011;67067;46.850;7.578;2023-07-13T06:21:17;2.33;;;2.13;;
77870;SDS011;67067;46.850;7.578;2023-07-13T06:22:21;2.65;;;2.45;;
77870;SDS011;67067;46.850;7.578;2023-07-13T06:23:23;4.13;;;2.42;;
77870;SDS011;67067;46.850;7.578;2023-07-13T06:24:25;2.92;;;2.33;;
77870;SDS011;67067;46.850;7.578;2023-07-13T06:25:27;2.58;;;2.22;;
77870;SDS011;67067;46.850;7.578;2023-07-13T06:26:29;2.33;;;2.13;;
77870;SDS011;67067;46.850;7.578;2023-07-13T06:28:33;2.38;;;2.20;;
77870;SDS011;67067;46.850;7.578;2023-07-13T06:29:35;2.17;;;2.08;;
77870;SDS011;67067;46.850;7.578;2023-07-13T06:31:42;2.92;;;2.25;;
77870;SDS011;67067;46.850;7.578;2023-07-13T06:32:44;2.33;;;2.13;;
77870;SDS011;67067;46.850;7.578;2023-07-13T06:34:47;2.20;;;2.00;;
77870;SDS011;67067;46.850;7.578;2023-07-13T06:35:49;1.92;;;1.83;;
77870;SDS011;67067;46.850;7.578;2023-07-13T06:36:51;5.38;;;2.10;;
77870;SDS011;67067;46.850;7.578;2023-07-13T06:38:54;2.00;;;1.90;;
77870;SDS011;67067;46.850;7.578;2023-07-13T06:41:01;2.42;;;2.22;;
77870;SDS011;67067;46.850;7.578;2023-07-13T06:42:03;2.65;;;1.90;;
77870;SDS011;67067;46.850;7.578;2023-07-13T06:43:05;2.60;;;2.40;;
77870;SDS011;67067;46.850;7.578;2023-07-13T06:44:07;2.75;;;2.25;;
77870;SDS011;67067;46.850;7.578;2023-07-13T06:45:08;3.30;;;2.22;;
77870;SDS011;67067;46.850;7.578;2023-07-13T06:46:10;2.38;;;2.17;;
77870;SDS011;67067;46.850;7.578;2023-07-13T06:47:12;1.90;;;1.77;;
77870;SDS011;67067;46.850;7.578;2023-07-13T06:48:17;2.17;;;2.08;;
77870;SDS011;67067;46.850;7.578;2023-07-13T06:49:20;2.50;;;2.30;;
77870;SDS011;67067;46.850;7.578;2023-07-13T06:50:22;3.90;;;2.30;;
77870;SDS011;67067;46.850;7.578;2023-07-13T06:51:26;2.47;;;2.28;;
77870;SDS011;67067;46.850;7.578;2023-07-13T06:53:29;4.82;;;2.13;;
77870;SDS011;67067;46.850;7.578;2023-07-13T06:54:31;3.58;;;1.92;;
77870;SDS011;67067;46.850;7.578;2023-07-13T06:56:36;2.53;;;1.67;;
77870;SDS011;67067;46.850;7.578;2023-07-13T06:57:40;1.70;;;1.60;;
77870;SDS011;67067;46.850;7.578;2023-07-13T06:58:42;1.92;;;1.70;;
77870;SDS011;67067;46.850;7.578;2023-07-13T07:00:46;1.63;;;1.52;;
77870;SDS011;67067;46.850;7.578;2023-07-13T07:01:50;2.83;;;2.60;;
77870;SDS011;67067;46.850;7.578;2023-07-13T07:03:53;1.70;;;1.60;;
77870;SDS011;67067;46.850;7.578;2023-07-13T07:04:57;2.40;;;2.30;;
77870;SDS011;67067;46.850;7.578;2023-07-13T07:07:23;1.85;;;1.75;;
77870;SDS011;67067;46.850;7.578;2023-07-13T07:08:25;3.42;;;2.30;;
77870;SDS011;67067;46.850;7.578;2023-07-13T07:09:27;1.80;;;1.70;;
77870;SDS011;67067;46.850;7.578;2023-07-13T07:10:31;2.10;;;1.90;;
77870;SDS011;67067;46.850;7.578;2023-07-13T07:11:33;2.58;;;1.35;;
77870;SDS011;67067;46.850;7.578;2023-07-13T07:13:36;2.13;;;1.60;;
77870;SDS011;67067;46.850;7.578;2023-07-13T07:15:39;1.60;;;1.50;;
77870;SDS011;67067;46.850;7.578;2023-07-13T07:17:43;1.80;;;1.70;;
77870;SDS011;67067;46.850;7.578;2023-07-13T07:18:45;1.80;;;1.65;;
77870;SDS011;67067;46.850;7.578;2023-07-13T07:19:52;2.63;;;1.83;;
77870;SDS011;67067;46.850;7.578;2023-07-13T07:20:55;1.30;;;1.20;;
77870;SDS011;67067;46.850;7.578;2023-07-13T07:21:59;1.50;;;1.40;;
77870;SDS011;67067;46.850;7.578;2023-07-13T07:24:03;1.65;;;1.55;;
77870;SDS011;67067;46.850;7.578;2023-07-13T07:25:06;1.52;;;1.42;;
77870;SDS011;67067;46.850;7.578;2023-07-13T07:26:07;1.33;;;1.25;;
77870;SDS011;67067;46.850;7.578;2023-07-13T07:27:11;1.67;;;1.58;;
77870;SDS011;67067;46.850;7.578;2023-07-13T07:28:16;2.45;;;1.30;;
77870;SDS011;67067;46.850;7.578;2023-07-13T07:29:24;1.52;;;1.42;;
77870;SDS011;67067;46.850;7.578;2023-07-13T07:30:30;2.10;;;1.48;;
77870;SDS011;67067;46.850;7.578;2023-07-13T07:31:34;1.50;;;1.40;;
77870;SDS011;67067;46.850;7.578;2023-07-13T07:32:41;1.00;;;1.00;;
77870;SDS011;67067;46.850;7.578;2023-07-13T07:33:46;1.42;;;1.33;;
77870;SDS011;67067;46.850;7.578;2023-07-13T07:35:50;0.90;;;0.90;;